createdAt,value
2022-08-23T00:23:14.005Z,100883.44
2022-08-23T01:29:41.958Z,100861.00
2022-08-23T04:38:33.380Z,100910.47
2022-08-23T04:41:34.788Z,100918.81
2022-08-23T04:44:56.915Z,100914.84
2022-08-23T04:47:32.583Z,100913.28
2022-08-23T04:50:07.434Z,100913.50
2022-08-23T04:52:34.229Z,100920.75
2022-08-23T04:55:01.048Z,100918.63
2022-08-23T04:57:44.885Z,100919.06
2022-08-23T05:00:16.733Z,100921.22
2022-08-23T05:03:31.564Z,100925.59
2022-08-23T05:06:29.232Z,100924.16
2022-08-23T05:09:29.272Z,100937.91
2022-08-23T05:12:04.384Z,100940.19
2022-08-23T05:14:35.039Z,100943.84
2022-08-23T05:17:07.986Z,100941.28
2022-08-23T05:19:47.570Z,100939.88
2022-08-23T05:22:19.152Z,100943.97
2022-08-23T05:25:14.902Z,100947.06
2022-08-23T05:28:17.509Z,100947.91
2022-08-23T05:31:21.456Z,100943.94
2022-08-23T05:33:53.598Z,100943.22
2022-08-23T05:36:27.613Z,100943.19
2022-08-23T05:38:54.681Z,100946.91
2022-08-23T05:41:25.941Z,100947.31
2022-08-23T05:44:27.111Z,100949.47
2022-08-23T05:46:53.866Z,100957.69
2022-08-23T05:49:28.112Z,100950.84
2022-08-23T05:51:56.006Z,100953.44
2022-08-23T05:54:27.152Z,100957.06
2022-08-23T05:57:20.032Z,100956.53
2022-08-23T05:59:48.608Z,100957.06
2022-08-23T06:02:15.345Z,100951.00
2022-08-23T06:04:42.174Z,100954.94
2022-08-23T06:07:11.169Z,100961.13
2022-08-23T06:09:38.244Z,100965.78
2022-08-23T06:12:05.382Z,100961.66
2022-08-23T06:14:32.194Z,100960.78
2022-08-23T06:16:59.195Z,100968.88
2022-08-23T06:19:27.542Z,100966.78
2022-08-23T06:22:20.686Z,100974.97
2022-08-23T06:24:58.548Z,100967.59
2022-08-23T06:27:43.818Z,100968.88
2022-08-23T06:30:15.079Z,100967.72
2022-08-23T06:32:42.078Z,100968.28
2022-08-23T06:35:39.122Z,100969.09
2022-08-23T06:38:22.427Z,100970.31
2022-08-23T06:41:10.797Z,100967.94
2022-08-23T06:43:52.278Z,100973.41
2022-08-23T06:46:38.587Z,100967.88
2022-08-23T06:49:07.031Z,100965.88
2022-08-23T06:51:56.527Z,100970.72
2022-08-23T06:54:48.599Z,100974.16
2022-08-23T06:57:36.542Z,100977.72
2022-08-23T07:00:26.742Z,100976.19
2022-08-23T07:06:56.723Z,100973.41
2022-08-23T07:09:24.604Z,100978.50
2022-08-23T07:11:57.845Z,100980.44
2022-08-23T07:14:25.738Z,100988.53
2022-08-23T07:16:56.446Z,100983.13
2022-08-23T07:19:29.054Z,100989.69
2022-08-23T07:21:57.886Z,100972.03
2022-08-23T07:24:29.326Z,100980.03
2022-08-23T07:26:58.678Z,100979.50
2022-08-23T07:29:25.727Z,100980.06
2022-08-23T07:40:40.868Z,100989.94
2022-08-23T07:59:41.858Z,100997.91
2022-08-23T08:02:31.671Z,100996.47
2022-08-23T08:10:26.651Z,100995.50
2022-08-23T08:12:23.526Z,100988.78
2022-08-23T08:14:53.680Z,101000.75
2022-08-23T08:17:27.546Z,100993.84
2022-08-23T08:20:10.327Z,101000.84
2022-08-23T08:23:04.453Z,101003.94
2022-08-23T08:25:34.317Z,101003.28
2022-08-23T08:28:03.971Z,101001.13
2022-08-23T08:30:31.143Z,100991.94
2022-08-23T08:38:09.886Z,100992.34
2022-08-23T09:13:51.816Z,101009.03
2022-08-23T09:35:54.901Z,100997.53
2022-08-23T09:38:21.935Z,100991.97
2022-08-23T09:40:54.815Z,100998.41
2022-08-23T09:43:27.004Z,101000.63
2022-08-23T09:45:56.664Z,100997.25
2022-08-23T09:48:43.837Z,101004.00
2022-08-23T09:51:42.777Z,100999.78
2022-08-23T09:54:34.414Z,100998.59
2022-08-23T09:57:12.032Z,100999.13
2022-08-23T09:59:42.556Z,100998.97
2022-08-23T10:02:30.598Z,101000.47
2022-08-23T10:05:12.017Z,100995.13
2022-08-23T10:07:45.910Z,100999.28
2022-08-23T10:10:31.760Z,100999.50
2022-08-23T10:13:22.055Z,100994.94
2022-08-23T10:15:59.419Z,101000.19
2022-08-23T10:18:55.014Z,101001.53
2022-08-23T10:21:31.538Z,100996.63
2022-08-23T10:24:07.657Z,100998.97
2022-08-23T10:26:39.268Z,100993.22
2022-08-23T10:29:34.113Z,100995.09
2022-08-23T10:32:22.686Z,101003.72
2022-08-23T10:35:06.544Z,100996.94
2022-08-23T10:41:00.542Z,100997.06
2022-08-23T10:43:54.650Z,101000.66
2022-08-23T10:49:08.135Z,100986.25
2022-08-23T10:51:42.851Z,101003.16
2022-08-23T10:54:18.805Z,100998.22
2022-08-23T10:56:48.901Z,100995.38
2022-08-23T10:59:26.810Z,100993.13
2022-08-23T11:02:15.683Z,100999.59
2022-08-23T11:04:59.301Z,101001.09
2022-08-23T11:07:34.402Z,100993.44
2022-08-23T11:10:25.374Z,100989.75
2022-08-23T11:13:01.256Z,100993.41
2022-08-23T11:15:44.850Z,100999.41
2022-08-23T11:18:37.956Z,100996.53
2022-08-23T11:21:09.066Z,100989.91
2022-08-23T11:23:58.618Z,100992.09
2022-08-23T11:26:27.004Z,100999.34
2022-08-23T11:28:56.742Z,100999.34
2022-08-23T11:31:26.876Z,100998.47
2022-08-23T11:34:16.597Z,100991.88
2022-08-23T11:37:23.392Z,101000.88
2022-08-23T11:40:08.353Z,100994.44
2022-08-23T11:42:39.946Z,100991.22
2022-08-23T11:45:40.639Z,100989.97
2022-08-23T11:48:29.303Z,100998.00
2022-08-23T11:51:25.476Z,101000.59
2022-08-23T11:53:55.129Z,101003.16
2022-08-23T11:56:57.892Z,101012.31
2022-08-23T11:59:42.061Z,101014.84
2022-08-23T12:02:48.002Z,101012.13
2022-08-23T12:05:32.719Z,101010.28
2022-08-23T12:08:00.082Z,101012.94
2022-08-23T12:10:42.351Z,101015.03
2022-08-23T12:13:20.584Z,101010.47
2022-08-23T12:16:20.082Z,101005.25
2022-08-23T12:18:47.718Z,101015.09
2022-08-23T12:21:22.822Z,101003.56
2022-08-23T12:24:13.800Z,101004.38
2022-08-23T12:27:00.859Z,100999.06
2022-08-23T12:29:40.505Z,101007.09
2022-08-23T12:32:16.837Z,101012.19
2022-08-23T12:34:47.234Z,101001.00
2022-08-23T12:37:22.731Z,101004.34
2022-08-23T12:39:53.632Z,101001.88
2022-08-23T12:42:30.860Z,100991.41
2022-08-23T12:45:09.440Z,100995.56
2022-08-23T12:47:40.916Z,100995.94
2022-08-23T12:50:28.612Z,101001.22
2022-08-23T12:53:07.148Z,101001.28
2022-08-23T12:55:38.021Z,100984.59
2022-08-23T12:58:05.709Z,100996.63
2022-08-23T13:00:40.393Z,100991.63
2022-08-23T13:03:17.034Z,100988.53
2022-08-23T13:05:52.264Z,100979.91
2022-08-23T13:08:34.214Z,100978.13
2022-08-23T13:11:07.693Z,100973.59
2022-08-23T13:13:40.384Z,100979.13
2022-08-23T13:16:27.156Z,100970.50
2022-08-23T13:18:56.326Z,100962.78
2022-08-23T13:21:23.132Z,100974.59
2022-08-23T13:23:52.190Z,100962.00
2022-08-23T13:26:37.779Z,100971.47
2022-08-23T13:29:09.237Z,100973.78
2022-08-23T13:32:03.445Z,100959.28
2022-08-23T13:34:31.329Z,100964.34
2022-08-23T13:37:01.230Z,100963.44
2022-08-23T13:39:30.450Z,100957.28
2022-08-23T13:41:57.975Z,100961.94
2022-08-23T13:44:25.955Z,100969.72
2022-08-23T13:46:52.675Z,100975.59
2022-08-23T13:49:22.610Z,100973.38
2022-08-23T13:54:50.826Z,100973.25
2022-08-23T13:57:20.752Z,100972.66
2022-08-23T13:59:54.203Z,100968.72
2022-08-23T14:02:23.388Z,100971.84
2022-08-23T14:04:52.678Z,100972.69
2022-08-23T14:07:20.090Z,100971.72
2022-08-23T14:09:46.839Z,100971.75
2022-08-23T14:12:24.881Z,100967.28
2022-08-23T14:22:40.549Z,100960.25
2022-08-23T14:25:08.743Z,100968.13
2022-08-23T14:27:39.428Z,100969.75
2022-08-23T14:30:35.219Z,100973.66
2022-08-23T14:33:07.662Z,100968.59
2022-08-23T14:35:36.560Z,100973.78
2022-08-23T14:38:04.937Z,100963.00
2022-08-23T14:40:38.102Z,100959.97
2022-08-23T14:43:05.881Z,100957.38
2022-08-23T14:45:35.333Z,100949.41
2022-08-23T14:48:02.446Z,100961.31
2022-08-23T14:50:29.506Z,100951.16
2022-08-23T14:53:30.716Z,100952.47
2022-08-23T14:56:21.255Z,100948.38
2022-08-23T14:58:55.514Z,100948.16
2022-08-23T15:50:31.303Z,100931.84
2022-08-23T15:53:08.580Z,100928.78
2022-08-23T15:55:43.139Z,100925.97
2022-08-23T15:58:22.458Z,100933.00
2022-08-23T16:00:49.965Z,100930.13
2022-08-23T16:03:20.285Z,100926.38
2022-08-23T16:05:52.672Z,100921.59
2022-08-23T16:08:28.756Z,100930.88
2022-08-23T16:11:15.591Z,100926.84
2022-08-23T16:13:44.643Z,100928.88
2022-08-23T16:19:44.267Z,100926.06
2022-08-23T16:22:11.288Z,100934.66
2022-08-23T16:24:38.600Z,100934.75
2022-08-23T16:27:06.160Z,100931.22
2022-08-23T16:29:35.055Z,100934.81
2022-08-23T16:32:03.820Z,100929.09
2022-08-23T16:34:30.587Z,100929.25
2022-08-23T16:37:00.016Z,100930.16
2022-08-23T16:39:27.623Z,100933.19
2022-08-23T16:41:55.222Z,100929.56
2022-08-23T16:44:22.003Z,100934.75
2022-08-23T16:46:48.794Z,100936.34
2022-08-23T16:49:16.954Z,100932.31
2022-08-23T16:51:43.671Z,100931.69
2022-08-23T16:54:10.948Z,100941.09
2022-08-23T16:56:39.352Z,100941.31
2022-08-23T16:59:09.217Z,100941.53
2022-08-23T17:01:49.740Z,100941.56
2022-08-23T17:04:17.470Z,100944.16
2022-08-23T17:06:46.336Z,100954.19
2022-08-23T17:09:14.575Z,100953.88
2022-08-23T17:11:43.247Z,100954.97
2022-08-23T17:14:10.353Z,100965.41
2022-08-23T17:20:16.697Z,100969.50
2022-08-23T17:22:43.412Z,100973.66
2022-08-23T17:25:11.118Z,100981.16
2022-08-23T17:27:41.375Z,100978.16
2022-08-23T17:30:12.834Z,100982.78
2022-08-23T17:32:40.377Z,100982.22
2022-08-23T17:35:12.686Z,100982.22
2022-08-23T17:37:41.862Z,100978.06
2022-08-23T17:40:12.001Z,100987.88
2022-08-23T17:42:41.014Z,100989.00
2022-08-23T17:45:09.313Z,100996.53
2022-08-23T17:47:36.129Z,100999.69
2022-08-23T17:50:04.017Z,101007.09
2022-08-23T17:52:30.928Z,101006.28
2022-08-23T17:54:57.899Z,101009.63
2022-08-23T18:01:27.436Z,101018.75
2022-08-23T18:03:54.878Z,101017.50
2022-08-23T18:06:25.137Z,101019.97
2022-08-23T18:08:51.959Z,101027.25
2022-08-23T18:11:28.724Z,101029.66
2022-08-23T18:13:56.609Z,101024.00
2022-08-23T18:16:31.867Z,101037.59
2022-08-23T18:19:03.442Z,101036.97
2022-08-23T18:21:30.861Z,101043.13
2022-08-23T18:23:59.097Z,101048.19
2022-08-23T18:26:54.103Z,101043.34
2022-08-23T18:29:31.591Z,101045.59
2022-08-23T18:32:00.914Z,101047.66
2022-08-23T18:34:29.613Z,101047.31
2022-08-23T18:36:56.788Z,101057.50
2022-08-23T18:39:31.166Z,101050.53
2022-08-23T18:42:00.718Z,101060.75
2022-08-23T18:44:28.142Z,101065.69
2022-08-23T18:46:55.088Z,101063.66
2022-08-23T18:49:22.113Z,101066.53
2022-08-23T18:51:48.951Z,101058.09
2022-08-23T18:54:16.122Z,101058.28
2022-08-23T18:56:45.228Z,101067.06
2022-08-23T18:59:19.440Z,101070.28
2022-08-23T19:01:49.739Z,101079.78
2022-08-23T19:04:16.857Z,101073.69
2022-08-23T19:07:30.770Z,101080.28
2022-08-23T19:09:57.504Z,101074.47
2022-08-23T19:12:24.367Z,101081.91
2022-08-23T19:14:53.585Z,101073.94
2022-08-23T19:17:20.473Z,101074.44
2022-08-23T19:19:47.788Z,101080.88
2022-08-23T19:22:14.707Z,101084.75
2022-08-23T19:24:41.579Z,101081.53
2022-08-23T19:27:09.220Z,101085.22
2022-08-23T19:29:36.282Z,101085.03
2022-08-23T19:32:04.072Z,101087.22
2022-08-23T19:34:30.974Z,101098.84
2022-08-23T19:37:01.203Z,101096.66
2022-08-23T19:42:20.907Z,101098.94
2022-08-23T19:44:52.536Z,101101.50
2022-08-23T19:47:23.665Z,101104.19
2022-08-23T19:49:58.033Z,101108.25
2022-08-23T19:52:25.741Z,101109.75
2022-08-23T19:55:05.385Z,101110.00
2022-08-23T19:57:33.595Z,101118.13
2022-08-23T20:00:08.314Z,101115.41
2022-08-23T20:02:35.187Z,101130.97
2022-08-23T20:05:02.065Z,101122.66
2022-08-23T20:07:29.137Z,101121.41
2022-08-23T20:09:58.249Z,101125.16
2022-08-23T20:12:27.717Z,101127.78
2022-08-23T20:14:55.571Z,101130.84
2022-08-23T20:17:23.305Z,101130.03
2022-08-23T20:19:50.015Z,101137.25
2022-08-23T20:22:35.622Z,101132.22
2022-08-23T20:25:02.875Z,101128.00
2022-08-23T20:27:31.177Z,101137.50
2022-08-23T20:29:59.889Z,101129.53
2022-08-23T20:32:27.681Z,101131.94
2022-08-23T20:34:54.515Z,101138.72
2022-08-23T20:37:21.677Z,101133.94
2022-08-23T20:39:48.500Z,101142.38
2022-08-23T20:42:15.750Z,101143.38
2022-08-23T20:44:42.655Z,101144.38
2022-08-23T20:47:09.459Z,101143.00
2022-08-23T20:49:36.607Z,101145.66
2022-08-23T20:52:03.758Z,101147.13
2022-08-23T20:54:30.634Z,101143.50
2022-08-23T20:56:57.404Z,101146.81
2022-08-23T20:59:24.186Z,101142.34
2022-08-23T21:01:51.136Z,101144.59
2022-08-23T21:04:19.322Z,101138.53
2022-08-23T21:06:50.044Z,101138.13
2022-08-23T21:09:19.573Z,101145.19
2022-08-23T21:11:48.113Z,101139.47
2022-08-23T21:14:16.409Z,101145.03
2022-08-23T21:16:44.837Z,101140.38
2022-08-23T21:19:11.730Z,101133.31
2022-08-23T21:21:39.642Z,101139.56
2022-08-23T21:24:08.949Z,101137.06
2022-08-23T21:26:36.971Z,101138.06
2022-08-23T21:29:05.286Z,101130.50
2022-08-23T21:31:32.196Z,101132.91
2022-08-23T21:34:00.662Z,101132.03
2022-08-23T21:36:28.111Z,101131.66
2022-08-23T21:38:54.927Z,101127.03
2022-08-23T21:41:28.004Z,101123.19
2022-08-23T21:43:54.952Z,101134.91
2022-08-23T21:46:23.173Z,101123.94
2022-08-23T21:48:50.012Z,101125.25
2022-08-23T21:51:16.675Z,101122.28
2022-08-23T21:53:43.576Z,101128.59
2022-08-23T21:56:13.285Z,101128.44
2022-08-23T21:58:40.112Z,101125.88
2022-08-23T22:01:09.051Z,101132.44
2022-08-23T22:03:36.378Z,101124.81
2022-08-23T22:06:04.564Z,101126.00
2022-08-23T22:08:32.120Z,101119.22
2022-08-23T22:11:06.346Z,101121.09
2022-08-23T22:13:34.346Z,101126.16
2022-08-23T22:16:01.724Z,101115.69
2022-08-23T22:18:29.932Z,101124.22
2022-08-23T22:20:58.306Z,101121.25
2022-08-23T22:23:29.531Z,101126.31
2022-08-23T22:26:00.461Z,101114.53
2022-08-23T22:28:31.269Z,101126.97
2022-08-23T22:31:00.942Z,101132.28
2022-08-23T22:33:27.822Z,101124.47
2022-08-23T22:35:54.866Z,101132.03
2022-08-23T22:38:21.613Z,101126.63
2022-08-23T22:40:52.708Z,101133.19
2022-08-23T22:43:20.164Z,101128.47
2022-08-23T22:46:00.742Z,101134.63
2022-08-23T22:48:29.457Z,101127.28
2022-08-23T22:51:12.861Z,101131.47
2022-08-23T22:53:45.099Z,101127.97
2022-08-23T22:56:13.950Z,101121.84
2022-08-23T22:58:40.829Z,101123.69
2022-08-23T23:01:12.972Z,101127.53
2022-08-23T23:03:41.439Z,101121.72
2022-08-23T23:06:08.881Z,101121.16
2022-08-23T23:08:35.598Z,101123.13
2022-08-23T23:11:04.700Z,101122.56
2022-08-23T23:13:32.272Z,101119.88
2022-08-23T23:16:02.892Z,101122.59
2022-08-23T23:18:29.601Z,101119.81
2022-08-23T23:21:01.936Z,101126.75
2022-08-23T23:23:30.165Z,101116.63
2022-08-23T23:25:57.589Z,101124.56
2022-08-23T23:28:24.603Z,101125.72
2022-08-23T23:30:53.421Z,101117.19
2022-08-23T23:33:22.122Z,101118.03
2022-08-23T23:35:49.306Z,101111.25
2022-08-23T23:38:16.802Z,101111.25
2022-08-23T23:40:43.868Z,101110.81
2022-08-23T23:43:13.083Z,101106.84
2022-08-23T23:45:41.572Z,101113.38
2022-08-23T23:48:09.767Z,101107.97
2022-08-23T23:50:41.565Z,101107.84
2022-08-23T23:53:15.366Z,101106.00
2022-08-23T23:55:43.394Z,101100.91
2022-08-23T23:58:10.614Z,101110.16
